Nova Andradina, Brazil
Current Conditions -  °F | °C
As of 1:00 PM on Monday 22 Dec 2014 (Local Time) from SBMG Reporting Station
Thunderstorm Thunderstorm  
Wind Chill: 68°   Ceiling: 300
Heat Index: 68°   Visibility: 0.31mi
Dew Point: 68°   Wind: 14mph
Humidity: 100%   Direction: 20°NNE
Pressure: 29.88"   Gusts: NA
Location:  22.23°S, 53.34°W
Report Text: SBMG 221600Z 02012KT 0500 +TSRA BKN003 OVC009 //////CB 20/20 Q1012
Loading
Personal Weather Stations






























Interactive Weather Map New forecast layout! Learn more

10-Day Weather Forecast

Advertisements
Track Severe Weather on mobile